Time;durP1;ratioP1;P1;durP2;ratioP2;P2;SDS_P1;SDS_P2;PMS_P1;PMS_P2;Temp;Humidity;BMP_temperature;BMP_pressure;BME280_temperature;BME280_humidity;BME280_pressure;Samples;Min_cycle;Max_cycle;Signal;HPM_P1;HPM_P2
2021/04/20 00:00:23;;;;;;;4.25;3.08;;;11.80;96.70;;;;;;4911750;29;20054;-75
2021/04/20 00:02:50;;;;;;;3.33;3.03;;;11.80;96.70;;;;;;4930058;28;20129;-76
2021/04/20 00:05:20;;;;;;;3.75;3.38;;;11.70;96.70;;;;;;4927249;29;20043;-75
2021/04/20 00:07:48;;;;;;;4.63;3.30;;;11.80;96.70;;;;;;4939353;28;20039;-75
2021/04/20 00:10:17;;;;;;;4.13;3.28;;;11.70;96.70;;;;;;4941927;29;20043;-75
2021/04/20 00:12:47;;;;;;;4.00;3.50;;;11.70;96.70;;;;;;4945196;28;20499;-75
2021/04/20 00:15:20;;;;;;;4.38;3.65;;;11.50;96.70;;;;;;4925450;29;20473;-76
2021/04/20 00:17:49;;;;;;;3.47;3.17;;;11.40;96.70;;;;;;4943639;28;20050;-74
2021/04/20 00:20:17;;;;;;;3.72;3.33;;;11.40;96.70;;;;;;4925586;29;20082;-75
2021/04/20 00:22:45;;;;;;;3.85;3.45;;;11.30;96.70;;;;;;4943857;28;20159;-75
2021/04/20 00:25:13;;;;;;;3.97;3.58;;;11.20;96.70;;;;;;4943401;28;20043;-75
2021/04/20 00:27:41;;;;;;;4.68;3.72;;;11.20;96.70;;;;;;4942809;29;20405;-75
2021/04/20 00:30:10;;;;;;;5.00;3.65;;;11.20;96.70;;;;;;4942412;28;20035;-75
2021/04/20 00:32:39;;;;;;;4.85;3.60;;;11.20;96.70;;;;;;4926005;29;20409;-76
2021/04/20 00:35:08;;;;;;;5.40;3.95;;;11.10;96.70;;;;;;4943157;29;20043;-75
2021/04/20 00:37:36;;;;;;;6.53;4.03;;;11.20;96.70;;;;;;4943838;29;20599;-76
2021/04/20 00:40:06;;;;;;;4.43;4.03;;;11.20;96.70;;;;;;4947101;28;20043;-75
2021/04/20 00:42:48;;;;;;;6.07;4.40;;;11.20;96.70;;;;;;4943483;28;20062;-75
2021/04/20 00:45:17;;;;;;;7.20;4.93;;;11.10;96.70;;;;;;4937196;28;20040;-75
2021/04/20 00:47:45;;;;;;;6.63;5.30;;;11.20;96.70;;;;;;4940306;28;20070;-76
2021/04/20 00:50:15;;;;;;;7.47;4.72;;;11.20;96.70;;;;;;4943999;29;20054;-75
2021/04/20 00:52:43;;;;;;;7.50;5.50;;;11.20;96.70;;;;;;4939799;29;20048;-76
2021/04/20 00:55:12;;;;;;;7.53;5.32;;;11.10;96.70;;;;;;4944294;29;20062;-75
2021/04/20 00:57:40;;;;;;;6.10;5.20;;;11.10;96.70;;;;;;4921451;29;20039;-75
2021/04/20 01:00:13;;;;;;;6.22;5.50;;;11.00;96.70;;;;;;4943891;28;20514;-73
2021/04/20 01:02:40;;;;;;;6.20;4.82;;;11.00;96.70;;;;;;4937642;28;20079;-73
2021/04/20 01:05:11;;;;;;;6.10;5.35;;;10.90;96.70;;;;;;4912327;29;20058;-73
2021/04/20 01:07:40;;;;;;;6.45;5.25;;;10.90;96.70;;;;;;4946860;28;20051;-73
2021/04/20 01:10:09;;;;;;;8.63;5.20;;;10.90;96.70;;;;;;4927740;28;20047;-73
2021/04/20 01:12:38;;;;;;;6.75;5.10;;;10.90;96.70;;;;;;4941882;29;20040;-73
2021/04/20 01:15:08;;;;;;;6.28;5.15;;;10.90;96.70;;;;;;4943362;28;20043;-73
2021/04/20 01:17:36;;;;;;;6.20;4.88;;;10.90;96.70;;;;;;4941641;28;20069;-73
2021/04/20 01:20:07;;;;;;;6.47;5.13;;;10.80;96.70;;;;;;4936391;29;20056;-73
2021/04/20 01:22:39;;;;;;;5.70;5.10;;;10.90;96.70;;;;;;4943094;28;20050;-73
2021/04/20 01:25:10;;;;;;;7.70;5.53;;;10.80;96.70;;;;;;4931917;28;20178;-73
2021/04/20 01:27:38;;;;;;;7.05;5.07;;;10.60;96.70;;;;;;4932352;29;20372;-73
2021/04/20 01:30:07;;;;;;;7.40;5.47;;;10.60;96.70;;;;;;4948967;28;20075;-73
2021/04/20 01:32:37;;;;;;;6.07;5.13;;;10.70;96.70;;;;;;4943286;28;20417;-73
2021/04/20 01:35:09;;;;;;;6.70;5.03;;;10.80;96.70;;;;;;4947324;28;20071;-72
2021/04/20 01:37:37;;;;;;;6.60;5.35;;;10.70;96.70;;;;;;4944091;28;20054;-73
2021/04/20 01:40:07;;;;;;;6.13;5.07;;;10.70;96.70;;;;;;4940641;28;20533;-73
2021/04/20 01:42:35;;;;;;;6.28;5.28;;;10.70;96.70;;;;;;4940940;28;20082;-73
2021/04/20 01:45:06;;;;;;;8.27;5.40;;;10.80;96.70;;;;;;4932819;28;20042;-73
2021/04/20 01:47:35;;;;;;;5.95;4.72;;;10.60;96.70;;;;;;4914429;28;20059;-73
2021/04/20 01:50:05;;;;;;;8.00;5.20;;;10.50;96.70;;;;;;4954516;28;20294;-73
2021/04/20 01:52:33;;;;;;;6.40;5.43;;;10.40;96.70;;;;;;4954717;28;20055;-73
2021/04/20 01:55:01;;;;;;;7.00;5.15;;;10.40;96.70;;;;;;4927449;28;20050;-73
2021/04/20 01:57:30;;;;;;;7.28;5.15;;;10.50;96.70;;;;;;4923136;28;20051;-73
2021/04/20 02:00:00;;;;;;;6.88;4.50;;;10.50;96.70;;;;;;4945095;28;20038;-73
2021/04/20 02:02:28;;;;;;;6.47;5.20;;;10.50;96.70;;;;;;4927917;28;20506;-72
2021/04/20 02:04:55;;;;;;;5.50;4.80;;;10.50;96.70;;;;;;4951018;28;20039;-73
2021/04/20 02:07:23;;;;;;;7.03;5.10;;;10.50;96.70;;;;;;4927178;28;20362;-73
2021/04/20 02:09:52;;;;;;;7.55;4.82;;;10.50;96.70;;;;;;4910240;28;20059;-73
2021/04/20 02:12:20;;;;;;;7.20;4.53;;;10.50;96.70;;;;;;4929246;28;20051;-73
2021/04/20 02:14:47;;;;;;;7.45;4.75;;;10.50;96.70;;;;;;4950910;28;20047;-72
2021/04/20 02:17:17;;;;;;;7.10;4.95;;;10.40;96.70;;;;;;4946851;28;20047;-73
2021/04/20 02:19:45;;;;;;;5.53;4.63;;;10.40;96.70;;;;;;4939924;28;20060;-73
2021/04/20 02:22:12;;;;;;;7.18;5.05;;;10.30;96.70;;;;;;4929789;29;20085;-73
2021/04/20 02:24:40;;;;;;;5.32;4.70;;;10.30;96.70;;;;;;4925508;28;20130;-73
2021/04/20 02:27:08;;;;;;;6.90;5.55;;;10.20;96.70;;;;;;4939123;28;20413;-73
2021/04/20 02:29:36;;;;;;;5.55;4.70;;;10.20;96.70;;;;;;4915062;29;20066;-73
2021/04/20 02:32:04;;;;;;;7.15;5.00;;;10.20;96.70;;;;;;4914389;29;20234;-73
2021/04/20 02:34:33;;;;;;;5.78;5.18;;;10.20;96.70;;;;;;4943320;28;20503;-73
2021/04/20 02:37:01;;;;;;;6.15;4.82;;;10.20;96.70;;;;;;4931929;28;20141;-73
2021/04/20 02:39:29;;;;;;;5.03;4.38;;;10.20;96.70;;;;;;4910852;29;20044;-73
2021/04/20 02:41:57;;;;;;;6.75;5.00;;;10.20;96.70;;;;;;4928995;28;20054;-72
2021/04/20 02:44:27;;;;;;;6.35;4.97;;;10.30;96.70;;;;;;4936818;29;20043;-73
2021/04/20 02:46:59;;;;;;;7.63;5.05;;;10.20;96.70;;;;;;4913881;29;20078;-73
2021/04/20 02:49:27;;;;;;;6.68;4.75;;;10.20;96.70;;;;;;4942560;28;20481;-73
2021/04/20 02:52:06;;;;;;;6.38;4.80;;;10.10;96.70;;;;;;4929522;28;20184;-72
2021/04/20 02:54:34;;;;;;;6.07;4.72;;;10.10;96.70;;;;;;4948280;28;20044;-72
2021/04/20 02:57:03;;;;;;;4.88;4.18;;;10.10;96.70;;;;;;4947723;28;20597;-73
2021/04/20 02:59:32;;;;;;;5.72;4.60;;;10.10;96.70;;;;;;4946031;28;20382;-73
2021/04/20 03:02:02;;;;;;;5.20;4.05;;;10.10;96.70;;;;;;4899980;29;20054;-73
2021/04/20 03:04:30;;;;;;;4.90;3.83;;;10.10;96.70;;;;;;4895253;29;20418;-73
2021/04/20 03:06:58;;;;;;;5.22;3.65;;;10.10;96.70;;;;;;4927281;29;20066;-72
2021/04/20 03:09:26;;;;;;;4.47;3.60;;;10.00;96.70;;;;;;4921543;29;20290;-72
2021/04/20 03:11:55;;;;;;;5.35;3.67;;;9.90;96.70;;;;;;4917118;29;20047;-73
2021/04/20 03:14:23;;;;;;;5.47;3.50;;;9.90;96.70;;;;;;4905483;29;20455;-73
2021/04/20 03:16:51;;;;;;;5.25;3.50;;;10.00;96.70;;;;;;4924056;29;20040;-73
2021/04/20 03:19:19;;;;;;;4.47;3.90;;;10.00;96.70;;;;;;4928976;29;20059;-72
2021/04/20 03:21:48;;;;;;;5.68;4.03;;;9.90;96.70;;;;;;4913380;29;20070;-72
2021/04/20 03:25:00;;;;;;;4.25;3.47;;;9.90;96.70;;;;;;4905610;29;20769;-72
2021/04/20 03:27:28;;;;;;;4.32;3.42;;;9.80;96.70;;;;;;4890519;29;20061;-72
2021/04/20 03:29:55;;;;;;;3.63;3.08;;;9.90;96.70;;;;;;4928359;29;20043;-75
2021/04/20 03:32:23;;;;;;;5.63;3.72;;;9.90;96.70;;;;;;4929488;29;20058;-73
2021/04/20 03:34:57;;;;;;;4.10;3.25;;;9.90;96.70;;;;;;4907318;29;20047;-72
2021/04/20 03:37:30;;;;;;;4.75;3.63;;;9.80;96.70;;;;;;4909337;29;20048;-72
2021/04/20 03:40:02;;;;;;;4.68;3.45;;;9.80;96.70;;;;;;4926476;29;20046;-72
2021/04/20 03:42:34;;;;;;;4.03;3.45;;;9.70;96.70;;;;;;4907281;29;20074;-73
2021/04/20 03:45:05;;;;;;;4.32;3.63;;;9.70;96.70;;;;;;4922998;29;20055;-73
2021/04/20 03:47:38;;;;;;;4.55;3.67;;;9.60;96.70;;;;;;4931709;29;20051;-72
2021/04/20 03:50:11;;;;;;;5.90;3.70;;;9.60;96.70;;;;;;4923045;29;20662;-76
2021/04/20 03:52:44;;;;;;;6.60;4.05;;;9.50;96.70;;;;;;4926985;29;20051;-74
2021/04/20 03:55:15;;;;;;;5.43;3.95;;;9.50;96.70;;;;;;4928294;29;20099;-73
2021/04/20 03:57:45;;;;;;;6.70;4.13;;;9.60;96.70;;;;;;4927412;29;20051;-73
2021/04/20 04:00:15;;;;;;;4.80;3.63;;;9.60;96.70;;;;;;4929740;28;20051;-74
2021/04/20 04:02:46;;;;;;;5.25;4.18;;;9.60;96.70;;;;;;4944582;29;20050;-74
2021/04/20 04:05:19;;;;;;;4.05;3.63;;;9.50;96.70;;;;;;4940108;28;20051;-74
2021/04/20 04:07:49;;;;;;;6.50;4.05;;;9.50;96.70;;;;;;4929364;28;20051;-74
2021/04/20 04:10:20;;;;;;;4.78;3.83;;;9.60;96.70;;;;;;4946846;28;20078;-74
2021/04/20 04:12:52;;;;;;;5.80;4.13;;;9.60;96.70;;;;;;4925119;29;20056;-74
2021/04/20 04:15:22;;;;;;;5.78;4.93;;;9.60;96.70;;;;;;4942512;28;20138;-73
2021/04/20 04:17:51;;;;;;;5.00;4.20;;;9.60;96.70;;;;;;4944997;28;20482;-74
2021/04/20 04:20:19;;;;;;;5.65;3.85;;;9.40;96.70;;;;;;4942400;28;20304;-74
2021/04/20 04:22:53;;;;;;;5.88;4.78;;;9.30;96.70;;;;;;4927947;28;20073;-75
2021/04/20 04:25:26;;;;;;;5.18;4.00;;;9.30;96.70;;;;;;4936214;28;20536;-74
2021/04/20 04:27:56;;;;;;;6.45;4.45;;;9.20;96.70;;;;;;4947951;28;20382;-73
2021/04/20 04:30:26;;;;;;;4.97;4.07;;;9.20;96.70;;;;;;4935613;28;20297;-74
2021/04/20 04:32:55;;;;;;;5.63;4.30;;;9.20;96.70;;;;;;4941960;28;20757;-74
2021/04/20 04:35:23;;;;;;;5.78;4.35;;;9.30;96.70;;;;;;4928950;29;20035;-74
2021/04/20 04:37:51;;;;;;;5.10;4.30;;;9.30;96.70;;;;;;4949057;28;20440;-74
2021/04/20 04:40:22;;;;;;;5.93;4.43;;;9.30;96.70;;;;;;4950615;28;20043;-74
2021/04/20 04:42:49;;;;;;;6.68;4.43;;;9.40;96.70;;;;;;4941172;28;20046;-73
2021/04/20 04:45:18;;;;;;;6.93;4.65;;;9.30;96.70;;;;;;4952644;28;20046;-74
2021/04/20 04:47:46;;;;;;;5.63;4.60;;;9.30;96.70;;;;;;4930267;28;20158;-73
2021/04/20 04:50:15;;;;;;;5.13;4.22;;;9.40;96.70;;;;;;4946391;28;20054;-74
2021/04/20 04:52:46;;;;;;;7.00;5.03;;;9.20;96.70;;;;;;4945516;28;20035;-74
2021/04/20 04:55:16;;;;;;;6.78;4.30;;;9.30;96.70;;;;;;4929228;29;20107;-74
2021/04/20 04:57:49;;;;;;;5.75;4.38;;;9.20;96.70;;;;;;4927869;28;20058;-74
2021/04/20 05:00:17;;;;;;;6.55;4.78;;;9.20;96.70;;;;;;4951545;28;20061;-73
2021/04/20 05:02:46;;;;;;;6.82;5.03;;;9.40;96.70;;;;;;4928941;28;20050;-74
2021/04/20 05:05:16;;;;;;;7.28;4.85;;;9.40;96.70;;;;;;4954700;28;20063;-74
2021/04/20 05:07:44;;;;;;;6.43;5.20;;;9.40;96.70;;;;;;4951000;28;20042;-75
2021/04/20 05:10:13;;;;;;;6.28;5.03;;;9.40;96.70;;;;;;4933428;28;20445;-74
2021/04/20 05:12:42;;;;;;;6.07;4.78;;;9.50;96.70;;;;;;4928247;29;20461;-74
2021/04/20 05:15:13;;;;;;;6.82;4.75;;;9.50;96.70;;;;;;4957468;28;20043;-73
2021/04/20 05:17:42;;;;;;;6.43;4.72;;;9.50;96.70;;;;;;4952476;28;20046;-74
2021/04/20 05:20:11;;;;;;;8.07;5.03;;;9.50;96.70;;;;;;4926720;28;20043;-72
2021/04/20 05:22:39;;;;;;;6.70;5.05;;;9.60;96.70;;;;;;4955042;28;20548;-74
2021/04/20 05:25:08;;;;;;;7.30;4.90;;;9.50;96.70;;;;;;4950975;28;20483;-74
2021/04/20 05:27:37;;;;;;;5.82;4.47;;;9.60;96.70;;;;;;4951726;28;20534;-74
2021/04/20 05:30:07;;;;;;;8.15;5.35;;;9.60;96.70;;;;;;4943294;28;20047;-75
2021/04/20 05:32:38;;;;;;;5.72;4.72;;;9.60;96.70;;;;;;4956770;28;20051;-75
2021/04/20 05:35:08;;;;;;;6.68;4.80;;;9.60;96.70;;;;;;4924957;28;20055;-74
2021/04/20 05:37:37;;;;;;;10.15;5.50;;;9.60;96.70;;;;;;4960425;28;20066;-74
2021/04/20 05:40:07;;;;;;;7.95;4.63;;;9.60;96.70;;;;;;4941959;28;20051;-74
2021/04/20 05:42:35;;;;;;;6.85;5.07;;;9.70;96.70;;;;;;4954527;28;20050;-75
2021/04/20 05:45:04;;;;;;;7.65;5.57;;;9.70;96.70;;;;;;4930768;28;20097;-74
2021/04/20 05:47:32;;;;;;;6.30;4.90;;;9.70;96.70;;;;;;4952599;28;20043;-74
2021/04/20 05:50:03;;;;;;;6.63;5.45;;;9.60;96.70;;;;;;4953704;28;20035;-74
2021/04/20 05:52:33;;;;;;;6.07;4.88;;;9.60;96.70;;;;;;4942735;28;20417;-74
2021/04/20 05:55:02;;;;;;;8.70;5.60;;;9.70;96.70;;;;;;4952614;28;20051;-75
2021/04/20 05:57:29;;;;;;;8.55;5.28;;;9.80;96.70;;;;;;4928431;29;20528;-74
2021/04/20 05:59:58;;;;;;;7.03;5.13;;;9.70;96.70;;;;;;4915753;28;20097;-75
2021/04/20 06:02:30;;;;;;;7.82;5.65;;;9.40;96.70;;;;;;4959381;28;20050;-73
2021/04/20 06:05:02;;;;;;;6.38;5.35;;;9.50;96.70;;;;;;4932111;28;20044;-74
2021/04/20 06:07:30;;;;;;;8.93;6.07;;;9.70;96.70;;;;;;4932915;29;20074;-75
2021/04/20 06:09:58;;;;;;;10.20;7.35;;;9.90;96.70;;;;;;4938563;28;20599;-75
2021/04/20 06:12:26;;;;;;;13.43;9.10;;;9.90;96.70;;;;;;4931307;29;20486;-75
2021/04/20 06:14:54;;;;;;;18.48;11.38;;;10.00;96.70;;;;;;4947638;28;20146;-75
2021/04/20 06:17:22;;;;;;;17.35;11.40;;;10.00;96.70;;;;;;4928617;28;20031;-74
2021/04/20 06:19:50;;;;;;;11.35;9.10;;;10.10;96.70;;;;;;4955238;28;20054;-74
2021/04/20 06:22:20;;;;;;;14.25;8.55;;;10.10;96.70;;;;;;4936311;29;20074;-74
2021/04/20 06:24:48;;;;;;;15.55;8.93;;;10.20;96.70;;;;;;4932779;28;20125;-75
2021/04/20 06:27:16;;;;;;;14.02;9.57;;;10.20;96.70;;;;;;4938594;28;20042;-75
2021/04/20 06:29:44;;;;;;;12.27;9.30;;;10.20;96.70;;;;;;4935383;28;20521;-75
2021/04/20 06:32:12;;;;;;;12.48;8.13;;;10.30;96.70;;;;;;4930565;28;20249;-73
2021/04/20 06:34:40;;;;;;;11.32;8.27;;;10.40;96.70;;;;;;4952614;28;20050;-74
2021/04/20 06:37:09;;;;;;;11.90;9.20;;;10.50;96.70;;;;;;4931038;29;20556;-75
2021/04/20 06:39:38;;;;;;;11.77;8.80;;;10.60;96.70;;;;;;4952018;28;20054;-74
2021/04/20 06:42:11;;;;;;;10.70;8.52;;;10.60;96.70;;;;;;4930960;28;20512;-74
2021/04/20 06:44:45;;;;;;;11.93;7.50;;;10.60;96.70;;;;;;4960496;28;20500;-75
2021/04/20 06:47:16;;;;;;;9.35;7.15;;;10.70;96.70;;;;;;4942108;28;20502;-75
2021/04/20 06:49:50;;;;;;;8.65;7.15;;;10.80;96.70;;;;;;4954746;28;20047;-75
2021/04/20 06:52:24;;;;;;;10.25;6.90;;;10.90;96.70;;;;;;4953089;28;20040;-74
2021/04/20 06:55:04;;;;;;;9.70;6.82;;;10.90;96.70;;;;;;4913181;29;20058;-76
2021/04/20 06:57:38;;;;;;;8.02;6.22;;;10.90;96.70;;;;;;4951610;28;20078;-74
2021/04/20 07:00:11;;;;;;;8.52;6.70;;;11.00;96.70;;;;;;4931947;29;20059;-74
2021/04/20 07:02:51;;;;;;;8.48;6.40;;;11.00;96.70;;;;;;4932351;28;20804;-75
2021/04/20 07:05:28;;;;;;;10.40;6.63;;;11.10;96.70;;;;;;4930555;28;20070;-75
2021/04/20 07:08:11;;;;;;;8.70;6.53;;;11.20;96.70;;;;;;4954956;28;20043;-74
2021/04/20 07:10:43;;;;;;;9.20;6.25;;;11.20;96.70;;;;;;4941131;29;20043;-74
2021/04/20 07:13:15;;;;;;;10.13;6.75;;;11.20;96.70;;;;;;4933294;28;20051;-75
2021/04/20 07:15:48;;;;;;;8.23;6.68;;;11.30;96.70;;;;;;4929118;28;20053;-74
2021/04/20 07:18:57;;;;;;;8.70;7.28;;;11.40;96.70;;;;;;4957230;28;20125;-74
2021/04/20 07:21:50;;;;;;;9.25;6.97;;;11.40;96.70;;;;;;4854409;29;20368;-75
2021/04/20 07:24:19;;;;;;;8.98;6.93;;;11.50;96.70;;;;;;4947984;28;20043;-75
2021/04/20 07:26:56;;;;;;;8.35;6.95;;;11.60;96.70;;;;;;4936623;28;20035;-77
2021/04/20 07:29:50;;;;;;;9.95;7.20;;;11.80;96.70;;;;;;4936613;29;20043;-74
2021/04/20 07:32:51;;;;;;;10.27;6.63;;;11.90;96.70;;;;;;4953598;28;20066;-75
2021/04/20 07:35:22;;;;;;;10.50;6.82;;;12.00;96.70;;;;;;4942618;28;20055;-76
2021/04/20 07:37:54;;;;;;;8.30;7.00;;;12.00;96.70;;;;;;4936860;28;20473;-74
2021/04/20 07:40:38;;;;;;;7.30;6.55;;;12.10;96.70;;;;;;4911677;28;20557;-75
2021/04/20 07:43:29;;;;;;;7.70;6.82;;;12.20;96.70;;;;;;4956059;28;20034;-74
2021/04/20 07:46:09;;;;;;;8.35;6.35;;;12.10;96.70;;;;;;4953623;28;20047;-76
2021/04/20 07:48:51;;;;;;;8.27;6.38;;;12.20;96.70;;;;;;4959348;28;20362;-75
2021/04/20 07:51:26;;;;;;;9.98;6.50;;;12.30;96.70;;;;;;4954322;28;20043;-74
2021/04/20 07:54:04;;;;;;;7.72;6.85;;;12.30;96.70;;;;;;4929297;29;20065;-73
2021/04/20 07:56:36;;;;;;;7.32;6.32;;;12.40;96.70;;;;;;4938610;28;20046;-74
2021/04/20 07:59:10;;;;;;;8.90;7.05;;;12.50;96.70;;;;;;4945378;28;20106;-76
2021/04/20 08:01:52;;;;;;;8.50;6.45;;;12.60;96.70;;;;;;4921281;28;20078;-76
2021/04/20 08:04:29;;;;;;;8.75;6.43;;;12.70;96.70;;;;;;4935037;28;20509;-76
2021/04/20 08:07:03;;;;;;;7.65;6.53;;;12.80;96.70;;;;;;4956946;28;20055;-74
2021/04/20 08:09:37;;;;;;;7.53;5.68;;;12.90;96.70;;;;;;4953071;28;20039;-75
2021/04/20 08:12:11;;;;;;;8.02;6.50;;;13.00;96.70;;;;;;4930505;28;20087;-75
2021/04/20 08:14:46;;;;;;;7.05;6.22;;;13.10;96.70;;;;;;4950560;28;20050;-75
2021/04/20 08:17:21;;;;;;;7.28;6.57;;;13.20;96.70;;;;;;4924307;28;20050;-75
2021/04/20 08:19:54;;;;;;;6.70;5.93;;;13.20;96.70;;;;;;4951735;28;20094;-75
2021/04/20 08:22:23;;;;;;;8.57;6.60;;;13.20;96.70;;;;;;4959611;28;20239;-74
2021/04/20 08:24:58;;;;;;;9.32;6.15;;;13.20;96.70;;;;;;4935922;28;20138;-74
2021/04/20 08:27:33;;;;;;;8.65;6.25;;;13.20;96.70;;;;;;4938987;28;20051;-75
2021/04/20 08:30:09;;;;;;;9.43;6.30;;;13.40;96.70;;;;;;4957605;28;20809;-75
2021/04/20 08:32:38;;;;;;;10.98;7.35;;;13.50;96.70;;;;;;4943903;29;20503;-75
2021/04/20 08:35:13;;;;;;;7.55;6.03;;;13.70;96.70;;;;;;4923351;28;20054;-75
2021/04/20 08:37:59;;;;;;;9.15;6.35;;;13.80;96.70;;;;;;4940502;28;20055;-75
2021/04/20 08:40:37;;;;;;;7.00;5.95;;;13.80;96.70;;;;;;4935123;28;20149;-77
2021/04/20 08:43:16;;;;;;;11.18;7.07;;;13.80;96.70;;;;;;4934359;28;20062;-77
2021/04/20 08:45:54;;;;;;;9.05;6.32;;;13.80;96.70;;;;;;4953188;28;20191;-75
2021/04/20 08:48:34;;;;;;;6.68;5.60;;;13.80;96.70;;;;;;4925967;28;20726;-75
2021/04/20 08:51:12;;;;;;;8.73;6.45;;;14.00;96.70;;;;;;4953157;28;20407;-74
2021/04/20 08:53:53;;;;;;;7.60;6.10;;;14.20;96.70;;;;;;4942485;28;20051;-74
2021/04/20 08:56:29;;;;;;;7.70;6.82;;;14.30;96.70;;;;;;4944212;28;20047;-75
2021/04/20 08:59:40;;;;;;;9.18;6.18;;;14.30;96.70;;;;;;4931088;28;20114;-75
2021/04/20 09:02:26;;;;;;;8.40;6.90;;;14.40;96.70;;;;;;4898223;29;20149;-75
2021/04/20 09:05:22;;;;;;;10.13;6.68;;;14.50;96.70;;;;;;4933016;28;20062;-75
2021/04/20 09:08:09;;;;;;;9.68;6.82;;;14.50;96.70;;;;;;4946804;28;20074;-75
2021/04/20 09:10:44;;;;;;;11.57;7.03;;;14.60;96.70;;;;;;4956573;28;20047;-75
2021/04/20 09:13:19;;;;;;;8.57;7.15;;;14.70;96.70;;;;;;4958193;28;20054;-74
2021/04/20 09:15:52;;;;;;;8.73;6.30;;;14.80;96.40;;;;;;4951168;28;20146;-74
2021/04/20 09:18:28;;;;;;;9.50;6.95;;;14.80;96.70;;;;;;4946599;28;20051;-76
2021/04/20 09:21:00;;;;;;;;;;;14.90;96.70;;;;;;4912807;28;20517;-76
2021/04/20 09:23:43;;;;;;;8.20;6.90;;;15.00;96.70;;;;;;4949299;28;20304;-75
2021/04/20 09:26:25;;;;;;;10.00;7.32;;;15.20;96.70;;;;;;4956180;28;20047;-76
2021/04/20 09:29:00;;;;;;;7.88;6.80;;;15.30;95.60;;;;;;4929332;29;20110;-75
2021/04/20 09:31:36;;;;;;;9.63;7.15;;;15.30;95.90;;;;;;4949453;28;20859;-75
2021/04/20 09:34:06;;;;;;;10.45;6.95;;;15.40;96.20;;;;;;4953937;28;20476;-75
2021/04/20 09:36:34;;;;;;;9.98;7.18;;;15.60;94.40;;;;;;4954775;28;20609;-75
2021/04/20 09:39:05;;;;;;;10.07;7.13;;;15.70;94.40;;;;;;4929855;28;20063;-77
2021/04/20 09:41:37;;;;;;;8.23;6.43;;;15.60;94.20;;;;;;4956315;28;20042;-75
2021/04/20 09:44:14;;;;;;;6.57;5.63;;;15.80;93.80;;;;;;4928515;29;20469;-76
2021/04/20 09:46:54;;;;;;;7.20;6.22;;;15.80;93.50;;;;;;4950742;28;20101;-75
2021/04/20 09:49:39;;;;;;;8.23;6.53;;;15.70;93.40;;;;;;4946104;28;20038;-75
2021/04/20 09:52:14;;;;;;;7.93;5.72;;;15.60;94.30;;;;;;4952772;28;20124;-75
2021/04/20 09:54:49;;;;;;;6.28;5.35;;;15.90;93.30;;;;;;4928783;28;20058;-75
2021/04/20 09:57:19;;;;;;;6.82;5.72;;;16.10;92.70;;;;;;4934202;28;20576;-75
2021/04/20 09:59:53;;;;;;;7.05;5.97;;;16.30;93.10;;;;;;4921162;28;20051;-76
2021/04/20 10:02:51;;;;;;;8.18;6.10;;;16.40;92.10;;;;;;4942319;28;20043;-75
2021/04/20 10:05:33;;;;;;;7.10;4.95;;;16.30;91.90;;;;;;4928640;28;20510;-75
2021/04/20 10:08:19;;;;;;;6.05;5.30;;;16.40;92.20;;;;;;4960437;28;20043;-75
2021/04/20 10:10:54;;;;;;;7.47;5.20;;;16.60;90.30;;;;;;4951413;28;20046;-75
2021/04/20 10:13:56;;;;;;;5.95;5.32;;;16.40;90.80;;;;;;4955223;28;20102;-75
2021/04/20 10:16:30;;;;;;;6.65;4.72;;;16.60;89.70;;;;;;4956943;28;20046;-75
2021/04/20 10:19:11;;;;;;;4.18;3.67;;;16.40;89.30;;;;;;4933624;28;20053;-75
2021/04/20 10:21:52;;;;;;;4.88;4.28;;;16.70;88.10;;;;;;4941154;29;20043;-76
2021/04/20 10:24:24;;;;;;;6.35;4.45;;;16.80;87.80;;;;;;4958279;28;20046;-75
2021/04/20 10:26:57;;;;;;;5.53;4.05;;;16.80;86.70;;;;;;4926358;29;20039;-75
2021/04/20 10:29:31;;;;;;;5.93;4.15;;;17.10;86.70;;;;;;4929061;28;20396;-75
2021/04/20 10:32:04;;;;;;;4.70;3.75;;;17.20;84.40;;;;;;4942091;28;20051;-75
2021/04/20 10:34:33;;;;;;;5.63;3.90;;;17.40;85.10;;;;;;4937099;28;20142;-76
2021/04/20 10:37:04;;;;;;;5.55;3.83;;;17.60;84.80;;;;;;4957107;28;20122;-75
2021/04/20 10:39:32;;;;;;;6.55;4.00;;;17.60;84.50;;;;;;4942785;28;20407;-75
2021/04/20 10:42:00;;;;;;;5.55;3.80;;;17.60;86.60;;;;;;4942083;29;20070;-75
2021/04/20 10:44:31;;;;;;;4.25;3.60;;;17.70;85.80;;;;;;4951478;28;20055;-75
2021/04/20 10:47:00;;;;;;;3.53;3.15;;;17.90;83.70;;;;;;4937916;28;20047;-76
2021/04/20 10:49:28;;;;;;;4.47;3.70;;;18.10;84.50;;;;;;4953567;28;20125;-75
2021/04/20 10:51:58;;;;;;;3.55;2.83;;;18.00;83.20;;;;;;4963312;28;20074;-76
2021/04/20 10:54:35;;;;;;;3.60;2.75;;;18.20;83.30;;;;;;4937501;28;20074;-75
2021/04/20 10:57:04;;;;;;;3.25;2.95;;;18.20;81.20;;;;;;4926452;29;20047;-75
2021/04/20 10:59:34;;;;;;;3.30;2.50;;;18.30;81.10;;;;;;4937083;28;20053;-75
2021/04/20 11:02:06;;;;;;;4.45;2.35;;;18.20;79.60;;;;;;4963036;28;20141;-75
2021/04/20 11:04:37;;;;;;;4.93;2.25;;;18.40;80.80;;;;;;4938637;28;20138;-76
2021/04/20 11:07:11;;;;;;;2.90;2.40;;;18.40;80.90;;;;;;4914505;28;20043;-75
2021/04/20 11:09:40;;;;;;;3.08;1.80;;;18.20;80.60;;;;;;4954914;28;20047;-76
2021/04/20 11:12:13;;;;;;;3.90;1.90;;;18.10;81.80;;;;;;4930321;28;20050;-75
2021/04/20 11:14:43;;;;;;;5.22;2.03;;;17.60;83.20;;;;;;4929725;29;21006;-76
2021/04/20 11:17:23;;;;;;;4.22;1.90;;;17.40;84.30;;;;;;4933249;28;20109;-75
2021/04/20 11:19:57;;;;;;;3.03;1.80;;;17.10;85.50;;;;;;4938235;28;20564;-75
2021/04/20 11:22:27;;;;;;;3.50;1.83;;;17.10;85.60;;;;;;4929645;29;20047;-75
2021/04/20 11:25:02;;;;;;;3.58;2.13;;;17.00;84.90;;;;;;4947068;28;20051;-76
2021/04/20 11:27:32;;;;;;;4.25;2.33;;;16.80;85.00;;;;;;4936689;28;20151;-75
2021/04/20 11:30:09;;;;;;;4.60;2.17;;;16.70;88.00;;;;;;4929528;29;20047;-75
2021/04/20 11:32:46;;;;;;;4.95;2.05;;;16.50;91.50;;;;;;4958258;28;20054;-75
2021/04/20 11:35:17;;;;;;;5.20;2.67;;;16.30;91.90;;;;;;4946656;28;20130;-76
2021/04/20 11:37:47;;;;;;;5.50;2.50;;;16.00;95.90;;;;;;4931191;28;20093;-76
2021/04/20 11:40:28;;;;;;;4.72;2.33;;;15.70;96.70;;;;;;4927999;28;20047;-75
2021/04/20 11:43:00;;;;;;;4.68;2.35;;;15.40;96.70;;;;;;4932229;28;20054;-76
2021/04/20 11:45:29;;;;;;;3.47;1.52;;;15.10;96.70;;;;;;4948954;28;20058;-76
2021/04/20 11:48:04;;;;;;;3.78;1.48;;;14.80;96.70;;;;;;4933457;28;20078;-76
2021/04/20 11:50:34;;;;;;;1.60;1.15;;;14.70;96.70;;;;;;4956977;28;20517;-75
2021/04/20 11:53:05;;;;;;;2.95;1.65;;;14.60;96.70;;;;;;4956296;28;20795;-76
2021/04/20 11:55:37;;;;;;;3.08;2.22;;;14.60;96.70;;;;;;4955466;28;20040;-75
2021/04/20 11:58:08;;;;;;;2.90;1.95;;;14.50;96.70;;;;;;4954838;28;20138;-76
2021/04/20 12:00:38;;;;;;;3.75;1.90;;;14.50;96.70;;;;;;4954807;28;20062;-76
2021/04/20 12:03:15;;;;;;;3.97;2.08;;;14.50;96.70;;;;;;4931528;28;20046;-76
2021/04/20 12:05:47;;;;;;;2.95;2.33;;;14.40;96.70;;;;;;4955048;28;20451;-75
2021/04/20 12:08:23;;;;;;;4.00;2.90;;;14.40;96.70;;;;;;4932578;28;20051;-76
2021/04/20 12:10:53;;;;;;;3.13;2.55;;;14.30;96.70;;;;;;4951077;28;20904;-75
2021/04/20 12:13:36;;;;;;;1.88;1.40;;;14.20;96.70;;;;;;4914470;29;20050;-75
2021/04/20 12:16:06;;;;;;;2.58;1.85;;;14.20;96.40;;;;;;4952655;28;20531;-76
2021/04/20 12:18:35;;;;;;;5.38;2.42;;;14.30;95.20;;;;;;4920655;29;20055;-76
2021/04/20 12:21:06;;;;;;;4.88;2.95;;;14.30;96.70;;;;;;4951616;28;20054;-77
2021/04/20 12:23:38;;;;;;;8.70;3.60;;;14.10;96.70;;;;;;4948567;28;20140;-76
2021/04/20 12:26:07;;;;;;;7.22;3.45;;;13.90;96.70;;;;;;4932324;28;20532;-75
2021/04/20 12:28:42;;;;;;;6.85;3.33;;;13.70;96.70;;;;;;4952068;28;20130;-75
2021/04/20 12:31:11;;;;;;;5.40;2.92;;;13.60;96.70;;;;;;4942802;28;20059;-75
2021/04/20 12:33:39;;;;;;;4.18;2.25;;;13.70;96.70;;;;;;4944706;28;20043;-75
2021/04/20 12:36:08;;;;;;;2.88;1.83;;;13.80;96.70;;;;;;4953195;28;20066;-75
2021/04/20 12:38:40;;;;;;;4.13;1.83;;;13.80;95.60;;;;;;4945775;28;20138;-76
2021/04/20 12:41:10;;;;;;;3.40;1.35;;;13.70;96.70;;;;;;4932549;29;20045;-76
2021/04/20 12:44:04;;;;;;;1.80;1.20;;;13.60;96.70;;;;;;4948319;28;20061;-76
2021/04/20 12:46:53;;;;;;;1.50;0.57;;;13.50;96.70;;;;;;4941200;28;20041;-76
2021/04/20 12:49:23;;;;;;;1.73;0.80;;;13.70;92.10;;;;;;4930480;28;20521;-79
2021/04/20 12:51:53;;;;;;;3.45;0.85;;;13.50;93.30;;;;;;4949935;28;20135;-76
2021/04/20 12:54:22;;;;;;;2.35;0.90;;;13.40;95.20;;;;;;4932548;28;20058;-76
2021/04/20 12:56:59;;;;;;;4.35;1.83;;;13.30;95.60;;;;;;4950849;28;20683;-77
2021/04/20 12:59:29;;;;;;;4.28;1.38;;;13.30;95.20;;;;;;4954477;28;20101;-77
2021/04/20 13:02:00;;;;;;;1.40;0.80;;;13.30;95.90;;;;;;4951491;28;20151;-76
2021/04/20 13:04:31;;;;;;;1.05;0.60;;;13.30;92.40;;;;;;4956158;28;20046;-76
2021/04/20 13:07:01;;;;;;;1.52;0.45;;;13.30;96.30;;;;;;4951608;28;20481;-76
2021/04/20 13:09:32;;;;;;;0.70;0.40;;;13.30;95.60;;;;;;4931955;29;20640;-76
2021/04/20 13:12:04;;;;;;;1.52;0.57;;;13.30;96.70;;;;;;4953962;28;21746;-77
2021/04/20 13:14:34;;;;;;;0.73;0.50;;;13.20;96.70;;;;;;4928101;28;20065;-76